createdAt,value
2022-12-30T00:00:11.189Z,1001.58
2022-12-30T00:01:11.125Z,1001.56
2022-12-30T00:02:11.237Z,1001.59
2022-12-30T00:03:11.169Z,1001.63
2022-12-30T00:04:11.066Z,1001.66
2022-12-30T00:05:11.013Z,1001.61
2022-12-30T00:06:10.989Z,1001.71
2022-12-30T00:07:10.963Z,1001.63
2022-12-30T00:08:10.934Z,1001.69
2022-12-30T00:09:10.908Z,1001.74
2022-12-30T00:10:10.916Z,1001.68
2022-12-30T00:11:10.851Z,1001.72
2022-12-30T00:12:10.824Z,1001.69
2022-12-30T00:13:10.797Z,1001.68
2022-12-30T00:14:10.771Z,1001.68
2022-12-30T00:15:10.761Z,1001.74
2022-12-30T00:16:10.743Z,1001.81
2022-12-30T00:17:10.713Z,1001.75
2022-12-30T00:18:10.669Z,1001.71
2022-12-30T00:19:10.639Z,1001.79
2022-12-30T00:20:10.634Z,1001.84
2022-12-30T00:21:10.582Z,1001.81
2022-12-30T00:22:10.560Z,1001.82
2022-12-30T00:23:10.528Z,1001.84
2022-12-30T00:24:10.500Z,1001.86
2022-12-30T00:25:10.467Z,1001.92
2022-12-30T00:26:10.447Z,1001.86
2022-12-30T00:27:10.416Z,1001.84
2022-12-30T00:28:10.413Z,1001.97
2022-12-30T00:29:10.360Z,1001.96
2022-12-30T00:30:10.330Z,1001.94
2022-12-30T00:31:10.366Z,1001.97
2022-12-30T00:32:10.325Z,1002.01
2022-12-30T00:33:10.298Z,1002.02
2022-12-30T00:34:10.221Z,1002.05
2022-12-30T00:35:10.212Z,1002.03
2022-12-30T00:36:10.184Z,1002.07
2022-12-30T00:37:10.138Z,1002.07
2022-12-30T00:38:10.112Z,1002.10
2022-12-30T00:39:10.083Z,1002.08
2022-12-30T00:40:10.060Z,1002.08
2022-12-30T00:41:10.027Z,1002.00
2022-12-30T00:42:10.004Z,1002.07
2022-12-30T00:43:09.970Z,1002.05
2022-12-30T00:44:09.962Z,1002.07
2022-12-30T00:45:09.920Z,1002.04
2022-12-30T00:46:10.005Z,1002.02
2022-12-30T00:47:09.868Z,1002.09
2022-12-30T00:48:09.866Z,1002.07
2022-12-30T00:49:09.807Z,1002.04
2022-12-30T00:50:09.794Z,1002.05
2022-12-30T00:51:09.757Z,1002.01
2022-12-30T00:52:09.751Z,1001.99
2022-12-30T00:53:09.700Z,1002.05
2022-12-30T00:54:09.696Z,1002.02
2022-12-30T00:55:09.648Z,1002.09
2022-12-30T00:56:09.617Z,1002.07
2022-12-30T00:57:09.593Z,1002.11
2022-12-30T00:58:09.563Z,1002.05
2022-12-30T00:59:09.535Z,1002.07
2022-12-30T01:00:09.518Z,1002.06
2022-12-30T01:01:09.602Z,1002.03
2022-12-30T01:02:09.565Z,1002.00
2022-12-30T01:03:09.451Z,1001.97
2022-12-30T01:04:09.466Z,1002.02
2022-12-30T01:05:09.383Z,1001.99
2022-12-30T01:06:09.347Z,1002.05
2022-12-30T01:07:09.315Z,1002.09
2022-12-30T01:08:09.321Z,1002.06
2022-12-30T01:09:09.258Z,1002.13
2022-12-30T01:10:09.236Z,1002.13
2022-12-30T01:11:09.203Z,1002.15
2022-12-30T01:12:09.183Z,1002.13
2022-12-30T01:13:09.154Z,1002.08
2022-12-30T01:14:09.121Z,1002.14
2022-12-30T01:15:09.097Z,1002.10
2022-12-30T01:16:09.103Z,1002.06
2022-12-30T01:17:09.041Z,1002.15
2022-12-30T01:18:09.021Z,1002.11
2022-12-30T01:19:08.997Z,1002.17
2022-12-30T01:20:08.966Z,1002.19
2022-12-30T01:21:08.931Z,1002.23
2022-12-30T01:22:08.903Z,1002.22
2022-12-30T01:23:08.873Z,1002.26
2022-12-30T01:24:08.871Z,1002.27
2022-12-30T01:25:08.819Z,1002.29
2022-12-30T01:26:08.800Z,1002.32
2022-12-30T01:27:08.772Z,1002.27
2022-12-30T01:28:08.765Z,1002.29
2022-12-30T01:29:08.708Z,1002.27
2022-12-30T01:30:08.700Z,1002.29
2022-12-30T01:31:08.658Z,1002.31
2022-12-30T01:32:08.654Z,1002.31
2022-12-30T01:33:08.598Z,1002.31
2022-12-30T01:34:08.573Z,1002.35
2022-12-30T01:35:08.554Z,1002.34
2022-12-30T01:36:08.513Z,1002.33
2022-12-30T01:37:08.499Z,1002.35
2022-12-30T01:38:08.464Z,1002.39
2022-12-30T01:39:08.437Z,1002.40
2022-12-30T01:40:08.465Z,1002.43
2022-12-30T01:41:08.381Z,1002.42
2022-12-30T01:42:08.349Z,1002.43
2022-12-30T01:43:08.331Z,1002.44
2022-12-30T01:44:08.294Z,1002.44
2022-12-30T01:45:08.269Z,1002.45
2022-12-30T01:46:08.343Z,1002.45
2022-12-30T01:47:08.211Z,1002.50
2022-12-30T01:48:08.184Z,1002.57
2022-12-30T01:49:08.156Z,1002.55
2022-12-30T01:50:08.459Z,1002.54
2022-12-30T01:51:08.103Z,1002.64
2022-12-30T01:52:08.074Z,1002.53
2022-12-30T01:53:08.044Z,1002.59
2022-12-30T01:54:08.018Z,1002.57
2022-12-30T01:55:07.989Z,1002.67
2022-12-30T01:56:07.982Z,1002.60
2022-12-30T01:57:07.937Z,1002.65
2022-12-30T01:58:07.904Z,1002.62
2022-12-30T01:59:07.879Z,1002.61
2022-12-30T02:00:07.861Z,1002.57
2022-12-30T02:01:07.967Z,1002.51
2022-12-30T02:02:07.965Z,1002.59
2022-12-30T02:03:07.830Z,1002.55
2022-12-30T02:04:07.742Z,1002.57
2022-12-30T02:05:07.717Z,1002.63
2022-12-30T02:06:07.685Z,1002.65
2022-12-30T02:07:07.673Z,1002.58
2022-12-30T02:08:07.644Z,1002.66
2022-12-30T02:09:07.603Z,1002.61
2022-12-30T02:10:07.577Z,1002.66
2022-12-30T02:11:07.548Z,1002.70
2022-12-30T02:12:07.583Z,1002.63
2022-12-30T02:13:07.522Z,1002.67
2022-12-30T02:14:09.816Z,1002.66
2022-12-30T02:15:07.457Z,1002.69
2022-12-30T02:16:07.416Z,1002.61
2022-12-30T02:17:07.467Z,1002.66
2022-12-30T02:18:07.352Z,1002.66
2022-12-30T02:19:07.329Z,1002.65
2022-12-30T02:20:07.321Z,1002.66
2022-12-30T02:21:07.287Z,1002.59
2022-12-30T02:22:07.248Z,1002.65
2022-12-30T02:23:07.240Z,1002.59
2022-12-30T02:24:07.187Z,1002.62
2022-12-30T02:25:07.162Z,1002.61
2022-12-30T02:26:07.132Z,1002.64
2022-12-30T02:27:07.111Z,1002.68
2022-12-30T02:28:07.097Z,1002.65
2022-12-30T02:29:07.049Z,1002.62
2022-12-30T02:30:07.032Z,1002.64
2022-12-30T02:31:07.022Z,1002.65
2022-12-30T02:32:06.969Z,1002.68
2022-12-30T02:33:06.943Z,1002.56
2022-12-30T02:34:06.908Z,1002.60
2022-12-30T02:35:06.884Z,1002.65
2022-12-30T02:36:06.851Z,1002.70
2022-12-30T02:37:06.830Z,1002.71
2022-12-30T02:38:06.799Z,1002.75
2022-12-30T02:39:06.775Z,1002.74
2022-12-30T02:40:06.755Z,1002.74
2022-12-30T02:41:06.716Z,1002.70
2022-12-30T02:42:06.691Z,1002.73
2022-12-30T02:43:06.661Z,1002.76
2022-12-30T02:44:06.650Z,1002.76
2022-12-30T02:45:06.619Z,1002.73
2022-12-30T02:46:06.689Z,1002.76
2022-12-30T02:47:06.550Z,1002.78
2022-12-30T02:48:06.523Z,1002.72
2022-12-30T02:49:06.496Z,1002.76
2022-12-30T02:50:06.469Z,1002.79
2022-12-30T02:51:06.457Z,1002.83
2022-12-30T02:52:06.409Z,1002.81
2022-12-30T02:53:06.398Z,1002.81
2022-12-30T02:54:06.355Z,1002.84
2022-12-30T02:55:06.324Z,1002.84
2022-12-30T02:56:06.308Z,1002.82
2022-12-30T02:57:06.273Z,1002.75
2022-12-30T02:58:06.245Z,1002.76
2022-12-30T02:59:06.216Z,1002.79
2022-12-30T03:00:06.231Z,1002.81
2022-12-30T03:01:06.296Z,1002.87
2022-12-30T03:02:06.258Z,1002.77
2022-12-30T03:03:06.245Z,1002.77
2022-12-30T03:04:06.079Z,1002.78
2022-12-30T03:05:06.056Z,1002.74
2022-12-30T03:06:06.021Z,1002.73
2022-12-30T03:07:05.998Z,1002.77
2022-12-30T03:08:05.963Z,1002.78
2022-12-30T03:09:05.938Z,1002.77
2022-12-30T03:10:09.512Z,1002.92
2022-12-30T03:11:05.882Z,1002.85
2022-12-30T03:12:05.866Z,1002.87
2022-12-30T03:13:05.848Z,1002.85
2022-12-30T03:14:05.798Z,1002.84
2022-12-30T03:15:05.774Z,1002.84
2022-12-30T03:16:05.837Z,1002.85
2022-12-30T03:17:05.721Z,1002.81
2022-12-30T03:18:05.705Z,1002.78
2022-12-30T03:19:05.666Z,1002.80
2022-12-30T03:20:05.632Z,1002.83
2022-12-30T03:21:05.605Z,1002.77
2022-12-30T03:22:05.575Z,1002.77
2022-12-30T03:23:05.548Z,1002.76
2022-12-30T03:24:05.522Z,1002.76
2022-12-30T03:25:05.499Z,1002.70
2022-12-30T03:26:05.468Z,1002.72
2022-12-30T03:27:05.466Z,1002.70
2022-12-30T03:28:05.410Z,1002.78
2022-12-30T03:29:05.385Z,1002.69
2022-12-30T03:30:05.354Z,1002.70
2022-12-30T03:31:05.368Z,1002.73
2022-12-30T03:32:05.325Z,1002.72
2022-12-30T03:33:05.273Z,1002.73
2022-12-30T03:34:05.244Z,1002.77
2022-12-30T03:35:05.217Z,1002.76
2022-12-30T03:36:05.190Z,1002.79
2022-12-30T03:37:05.166Z,1002.79
2022-12-30T03:38:05.133Z,1002.79
2022-12-30T03:39:05.113Z,1002.84
2022-12-30T03:40:05.076Z,1002.78
2022-12-30T03:41:05.063Z,1002.73
2022-12-30T03:42:05.025Z,1002.72
2022-12-30T03:43:04.998Z,1002.81
2022-12-30T03:44:04.975Z,1002.72
2022-12-30T03:45:04.956Z,1002.71
2022-12-30T03:46:05.044Z,1002.74
2022-12-30T03:47:04.888Z,1002.65
2022-12-30T03:48:04.877Z,1002.66
2022-12-30T03:49:04.831Z,1002.65
2022-12-30T03:50:04.804Z,1002.59
2022-12-30T03:51:04.777Z,1002.55
2022-12-30T03:52:05.506Z,1002.64
2022-12-30T03:53:04.721Z,1002.57
2022-12-30T03:54:04.690Z,1002.59
2022-12-30T03:55:04.667Z,1002.56
2022-12-30T03:56:04.637Z,1002.56
2022-12-30T03:57:04.617Z,1002.58
2022-12-30T03:58:04.581Z,1002.55
2022-12-30T03:59:04.558Z,1002.53
2022-12-30T04:00:04.525Z,1002.51
2022-12-30T04:01:04.538Z,1002.61
2022-12-30T04:02:04.607Z,1002.60
2022-12-30T04:03:04.602Z,1002.63
2022-12-30T04:04:04.437Z,1002.56
2022-12-30T04:05:04.395Z,1002.60
2022-12-30T04:06:04.371Z,1002.55
2022-12-30T04:07:04.335Z,1002.58
2022-12-30T04:08:04.306Z,1002.59
2022-12-30T04:09:04.281Z,1002.66
2022-12-30T04:10:04.293Z,1002.62
2022-12-30T04:11:04.225Z,1002.65
2022-12-30T04:12:04.217Z,1002.61
2022-12-30T04:13:04.170Z,1002.62
2022-12-30T04:14:04.142Z,1002.60
2022-12-30T04:15:04.111Z,1002.64
2022-12-30T04:16:04.113Z,1002.56
2022-12-30T04:17:04.056Z,1002.60
2022-12-30T04:18:04.030Z,1002.61
2022-12-30T04:19:04.004Z,1002.62
2022-12-30T04:20:03.991Z,1002.65
2022-12-30T04:21:03.947Z,1002.60
2022-12-30T04:22:03.929Z,1002.60
2022-12-30T04:23:03.893Z,1002.62
2022-12-30T04:24:03.877Z,1002.63
2022-12-30T04:25:03.840Z,1002.66
2022-12-30T04:26:03.804Z,1002.69
2022-12-30T04:27:03.793Z,1002.72
2022-12-30T04:28:03.754Z,1002.73
2022-12-30T04:29:03.725Z,1002.71
2022-12-30T04:30:03.700Z,1002.78
2022-12-30T04:31:03.719Z,1002.78
2022-12-30T04:32:03.716Z,1002.78
2022-12-30T04:33:03.611Z,1002.76
2022-12-30T04:34:08.036Z,1002.79
2022-12-30T04:35:03.557Z,1002.72
2022-12-30T04:36:03.547Z,1002.76
2022-12-30T04:37:03.502Z,1002.74
2022-12-30T04:38:03.485Z,1002.78
2022-12-30T04:39:03.451Z,1002.75
2022-12-30T04:40:03.424Z,1002.77
2022-12-30T04:41:03.399Z,1002.75
2022-12-30T04:42:03.372Z,1002.73
2022-12-30T04:43:03.334Z,1002.70
2022-12-30T04:44:03.311Z,1002.72
2022-12-30T04:45:03.283Z,1002.75
2022-12-30T04:46:03.255Z,1002.70
2022-12-30T04:47:03.331Z,1002.70
2022-12-30T04:48:03.193Z,1002.79
2022-12-30T04:49:03.167Z,1002.75
2022-12-30T04:50:03.156Z,1002.73
2022-12-30T04:51:03.112Z,1002.73
2022-12-30T04:52:03.105Z,1002.71
2022-12-30T04:53:03.059Z,1002.71
2022-12-30T04:54:03.027Z,1002.74
2022-12-30T04:55:02.996Z,1002.74
2022-12-30T04:56:02.989Z,1002.76
2022-12-30T04:57:02.947Z,1002.74
2022-12-30T04:58:02.917Z,1002.76
2022-12-30T04:59:02.890Z,1002.71
2022-12-30T05:00:02.869Z,1002.72
2022-12-30T05:01:02.970Z,1002.71
2022-12-30T05:02:03.029Z,1002.74
2022-12-30T05:03:02.916Z,1002.68
2022-12-30T05:04:02.753Z,1002.72
2022-12-30T05:05:02.742Z,1002.73
2022-12-30T05:06:02.699Z,1002.78
2022-12-30T05:07:02.666Z,1002.82
2022-12-30T05:08:02.662Z,1002.78
2022-12-30T05:09:02.615Z,1002.81
2022-12-30T05:10:02.580Z,1002.83
2022-12-30T05:11:02.555Z,1002.84
2022-12-30T05:12:02.525Z,1002.89
2022-12-30T05:13:02.510Z,1002.88
2022-12-30T05:14:02.493Z,1002.87
2022-12-30T05:15:02.448Z,1002.89
2022-12-30T05:16:02.459Z,1002.90
2022-12-30T05:17:02.386Z,1002.88
2022-12-30T05:18:02.358Z,1002.90
2022-12-30T05:19:02.337Z,1002.85
2022-12-30T05:20:02.300Z,1002.88
2022-12-30T05:21:02.272Z,1002.95
2022-12-30T05:22:02.242Z,1002.92
2022-12-30T05:23:02.217Z,1002.96
2022-12-30T05:24:02.256Z,1002.97
2022-12-30T05:25:02.176Z,1003.01
2022-12-30T05:26:02.145Z,1002.96
2022-12-30T05:27:02.113Z,1003.00
2022-12-30T05:28:02.073Z,1003.00
2022-12-30T05:29:02.048Z,1003.01
2022-12-30T05:30:02.017Z,1003.01
2022-12-30T05:31:01.996Z,1002.99
2022-12-30T05:32:02.049Z,1003.00
2022-12-30T05:33:01.935Z,1003.03
2022-12-30T05:34:08.618Z,1002.97
2022-12-30T05:35:01.893Z,1002.97
2022-12-30T05:36:01.848Z,1002.96
2022-12-30T05:37:01.822Z,1002.98
2022-12-30T05:38:01.794Z,1003.02
2022-12-30T05:39:01.788Z,1003.02
2022-12-30T05:40:01.752Z,1003.05
2022-12-30T05:41:08.411Z,1003.08
2022-12-30T05:42:01.697Z,1003.09
2022-12-30T05:43:01.662Z,1003.06
2022-12-30T05:44:01.651Z,1003.12
2022-12-30T05:45:01.666Z,1003.18
2022-12-30T05:46:01.726Z,1003.15
2022-12-30T05:47:01.539Z,1003.13
2022-12-30T05:48:01.515Z,1003.11
2022-12-30T05:49:01.482Z,1003.11
2022-12-30T05:50:01.476Z,1003.12
2022-12-30T05:51:01.424Z,1003.15
2022-12-30T05:52:01.396Z,1003.14
2022-12-30T05:53:01.367Z,1003.08
2022-12-30T05:54:01.345Z,1003.08
2022-12-30T05:55:01.343Z,1003.08
2022-12-30T05:56:01.303Z,1003.09
2022-12-30T05:57:01.256Z,1003.09
2022-12-30T05:58:01.224Z,1003.11
2022-12-30T05:59:01.205Z,1003.06
2022-12-30T06:00:01.171Z,1003.03
2022-12-30T06:01:01.145Z,1003.01
2022-12-30T06:02:01.431Z,1003.00
2022-12-30T06:03:01.186Z,1003.01
2022-12-30T06:04:01.195Z,1002.97
2022-12-30T06:05:01.027Z,1002.99
2022-12-30T06:06:01.009Z,1002.94
2022-12-30T06:07:01.002Z,1002.90
2022-12-30T06:08:00.940Z,1002.87
2022-12-30T06:09:00.928Z,1002.85
2022-12-30T06:10:00.886Z,1002.84
2022-12-30T06:11:00.856Z,1002.82
2022-12-30T06:12:00.848Z,1002.84
2022-12-30T06:13:00.799Z,1002.86
2022-12-30T06:14:00.771Z,1002.97
2022-12-30T06:15:00.738Z,1002.94
2022-12-30T06:16:00.714Z,1002.95
2022-12-30T06:17:00.754Z,1003.01
2022-12-30T06:18:00.667Z,1003.02
2022-12-30T06:19:00.626Z,1002.96
2022-12-30T06:20:00.604Z,1002.98
2022-12-30T06:21:00.569Z,1002.97
2022-12-30T06:22:00.541Z,1002.94
2022-12-30T06:23:00.510Z,1002.91
2022-12-30T06:24:00.488Z,1002.86
2022-12-30T06:25:00.453Z,1002.85
2022-12-30T06:26:00.436Z,1002.89
2022-12-30T06:27:00.396Z,1002.89
2022-12-30T06:28:00.397Z,1002.89
2022-12-30T06:29:00.339Z,1002.87
2022-12-30T06:30:00.312Z,1002.85
2022-12-30T06:31:00.348Z,1002.81
2022-12-30T06:32:00.263Z,1002.84
2022-12-30T06:33:00.231Z,1002.82
2022-12-30T06:34:00.205Z,1002.79
2022-12-30T06:35:00.167Z,1002.77
2022-12-30T06:36:00.144Z,1002.72
2022-12-30T06:37:00.120Z,1002.72
2022-12-30T06:38:00.093Z,1002.71
2022-12-30T06:39:00.055Z,1002.70
2022-12-30T06:40:00.029Z,1002.67
2022-12-30T06:41:00.002Z,1002.70
2022-12-30T06:41:59.968Z,1002.74
2022-12-30T06:42:59.941Z,1002.68
2022-12-30T06:43:59.943Z,1002.70
2022-12-30T06:44:59.882Z,1002.72
2022-12-30T06:45:59.889Z,1002.74
2022-12-30T06:46:59.829Z,1002.74
2022-12-30T06:47:59.797Z,1002.77
2022-12-30T06:48:59.770Z,1002.76
2022-12-30T06:49:59.740Z,1002.80
2022-12-30T06:50:59.711Z,1002.83
2022-12-30T06:51:59.697Z,1002.76
2022-12-30T06:52:59.653Z,1002.74
2022-12-30T06:53:59.632Z,1002.77
2022-12-30T06:54:59.598Z,1002.77
2022-12-30T06:55:59.570Z,1002.74
2022-12-30T06:56:59.540Z,1002.76
2022-12-30T06:57:59.517Z,1002.74
2022-12-30T06:58:59.480Z,1002.68
2022-12-30T06:59:59.482Z,1002.73
2022-12-30T07:00:59.425Z,1002.73
2022-12-30T07:01:59.562Z,1002.77
2022-12-30T07:02:59.477Z,1002.76
2022-12-30T07:03:59.456Z,1002.72
2022-12-30T07:04:59.312Z,1002.70
2022-12-30T07:05:59.284Z,1002.69
2022-12-30T07:06:59.254Z,1002.70
2022-12-30T07:07:59.235Z,1002.68
2022-12-30T07:08:59.194Z,1002.62
2022-12-30T07:09:59.183Z,1002.63
2022-12-30T07:10:59.143Z,1002.63
2022-12-30T07:11:59.111Z,1002.58
2022-12-30T07:12:59.088Z,1002.56
2022-12-30T07:13:59.054Z,1002.60
2022-12-30T07:14:59.021Z,1002.61
2022-12-30T07:15:59.095Z,1002.66
2022-12-30T07:16:58.970Z,1002.62
2022-12-30T07:17:58.939Z,1002.61
2022-12-30T07:18:58.914Z,1002.62
2022-12-30T07:19:58.879Z,1002.63
2022-12-30T07:20:58.850Z,1002.63
2022-12-30T07:21:58.830Z,1002.65
2022-12-30T07:23:02.943Z,1002.62
2022-12-30T07:23:58.770Z,1002.66
2022-12-30T07:24:58.755Z,1002.66
2022-12-30T07:25:58.709Z,1002.70
2022-12-30T07:26:58.686Z,1002.68
2022-12-30T07:27:58.650Z,1002.62
2022-12-30T07:28:58.621Z,1002.66
2022-12-30T07:29:58.594Z,1002.66
2022-12-30T07:30:58.627Z,1002.57
2022-12-30T07:31:58.612Z,1002.54
2022-12-30T07:32:58.613Z,1002.59
2022-12-30T07:33:58.481Z,1002.56
2022-12-30T07:34:58.457Z,1002.61
2022-12-30T07:35:58.421Z,1002.58
2022-12-30T07:36:58.393Z,1002.58
2022-12-30T07:37:58.366Z,1002.62
2022-12-30T07:38:58.342Z,1002.60
2022-12-30T07:39:58.309Z,1002.56
2022-12-30T07:40:58.276Z,1002.59
2022-12-30T07:41:58.251Z,1002.60
2022-12-30T07:42:58.230Z,1002.54
2022-12-30T07:43:58.197Z,1002.55
2022-12-30T07:44:58.196Z,1002.53
2022-12-30T07:45:58.251Z,1002.55
2022-12-30T07:46:58.156Z,1002.53
2022-12-30T07:47:58.096Z,1002.58
2022-12-30T07:48:58.049Z,1002.53
2022-12-30T07:49:58.044Z,1002.53
2022-12-30T07:50:57.992Z,1002.53
2022-12-30T07:51:57.969Z,1002.51
2022-12-30T07:52:57.938Z,1002.56
2022-12-30T07:54:03.320Z,1002.49
2022-12-30T07:54:57.875Z,1002.52
2022-12-30T07:55:57.849Z,1002.49
2022-12-30T07:56:57.828Z,1002.50
2022-12-30T07:57:57.791Z,1002.47
2022-12-30T07:58:57.758Z,1002.47
2022-12-30T07:59:57.743Z,1002.44
2022-12-30T08:00:57.716Z,1002.41
2022-12-30T08:01:57.819Z,1002.40
2022-12-30T08:02:57.808Z,1002.37
2022-12-30T08:03:57.753Z,1002.37
2022-12-30T08:04:57.598Z,1002.35
2022-12-30T08:05:57.635Z,1002.34
2022-12-30T08:06:57.566Z,1002.28
2022-12-30T08:07:57.504Z,1002.31
2022-12-30T08:08:57.470Z,1002.28
2022-12-30T08:09:57.444Z,1002.27
2022-12-30T08:10:58.413Z,1002.26
2022-12-30T08:11:57.386Z,1002.28
2022-12-30T08:12:57.362Z,1002.28
2022-12-30T08:13:57.336Z,1002.26
2022-12-30T08:14:57.297Z,1002.22
2022-12-30T08:15:57.350Z,1002.23
2022-12-30T08:16:57.246Z,1002.20
2022-12-30T08:17:57.211Z,1002.20
2022-12-30T08:18:57.184Z,1002.19
2022-12-30T08:19:57.176Z,1002.15
2022-12-30T08:20:57.125Z,1002.11
2022-12-30T08:21:57.127Z,1002.09
2022-12-30T08:22:57.070Z,1002.09
2022-12-30T08:23:57.054Z,1002.09
2022-12-30T08:24:57.007Z,1002.07
2022-12-30T08:25:56.982Z,1002.11
2022-12-30T08:26:56.950Z,1002.06
2022-12-30T08:27:56.923Z,1002.00
2022-12-30T08:28:56.899Z,1002.01
2022-12-30T08:29:56.866Z,1001.98
2022-12-30T08:30:56.892Z,1001.97
2022-12-30T08:31:56.834Z,1001.95
2022-12-30T08:32:56.778Z,1001.96
2022-12-30T08:33:56.750Z,1001.97
2022-12-30T08:34:56.720Z,1001.95
2022-12-30T08:35:56.715Z,1001.94
2022-12-30T08:36:56.682Z,1001.90
2022-12-30T08:37:56.650Z,1001.91
2022-12-30T08:38:56.604Z,1001.88
2022-12-30T08:39:56.683Z,1001.87
2022-12-30T08:40:56.552Z,1001.81
2022-12-30T08:41:57.314Z,1001.82
2022-12-30T08:42:56.496Z,1001.83
2022-12-30T08:43:56.479Z,1001.83
2022-12-30T08:44:56.429Z,1001.81
2022-12-30T08:45:56.406Z,1001.80
2022-12-30T08:46:56.500Z,1001.73
2022-12-30T08:47:56.347Z,1001.75
2022-12-30T08:48:56.316Z,1001.70
2022-12-30T08:49:56.295Z,1001.71
2022-12-30T08:50:58.885Z,1001.71
2022-12-30T08:51:56.252Z,1001.71
2022-12-30T08:52:56.202Z,1001.66
2022-12-30T08:53:56.174Z,1001.63
2022-12-30T08:54:56.147Z,1001.57
2022-12-30T08:55:56.121Z,1001.55
2022-12-30T08:56:56.086Z,1001.53
2022-12-30T08:57:56.059Z,1001.48
2022-12-30T08:58:56.029Z,1001.51
2022-12-30T08:59:56.001Z,1001.50
2022-12-30T09:00:56.029Z,1001.54
2022-12-30T09:01:56.116Z,1001.48
2022-12-30T09:02:56.146Z,1001.46
2022-12-30T09:03:55.892Z,1001.45
2022-12-30T09:04:55.858Z,1001.44
2022-12-30T09:06:00.785Z,1001.47
2022-12-30T09:06:55.796Z,1001.43
2022-12-30T09:07:58.707Z,1001.46
2022-12-30T09:08:55.745Z,1001.47
2022-12-30T09:09:55.714Z,1001.45
2022-12-30T09:10:55.680Z,1001.45
2022-12-30T09:11:55.687Z,1001.49
2022-12-30T09:12:55.625Z,1001.54
2022-12-30T09:14:00.077Z,1001.51
2022-12-30T09:14:55.567Z,1001.46
2022-12-30T09:15:55.610Z,1001.46
2022-12-30T09:16:55.533Z,1001.44
2022-12-30T09:17:55.484Z,1001.35
2022-12-30T09:18:55.462Z,1001.28
2022-12-30T09:19:55.428Z,1001.24
2022-12-30T09:20:55.414Z,1001.23
2022-12-30T09:21:55.371Z,1001.27
2022-12-30T09:22:55.337Z,1001.26
2022-12-30T09:23:55.331Z,1001.29
2022-12-30T09:24:55.289Z,1001.22
2022-12-30T09:25:55.256Z,1001.21
2022-12-30T09:27:00.690Z,1001.27
2022-12-30T09:27:55.201Z,1001.19
2022-12-30T09:28:55.176Z,1001.21
2022-12-30T09:29:55.163Z,1001.14
2022-12-30T09:30:55.126Z,1001.15
2022-12-30T09:31:55.233Z,1001.14
2022-12-30T09:32:55.053Z,1001.10
2022-12-30T09:33:55.039Z,1001.06
2022-12-30T09:34:54.996Z,1001.05
2022-12-30T09:35:54.974Z,1001.05
2022-12-30T09:36:54.940Z,1001.05
2022-12-30T09:37:54.913Z,1001.01
2022-12-30T09:38:54.903Z,1000.98
2022-12-30T09:39:54.893Z,1001.00
2022-12-30T09:40:54.828Z,1001.02
2022-12-30T09:41:54.799Z,1000.98
2022-12-30T09:42:54.769Z,1001.00
2022-12-30T09:43:54.739Z,1000.99
2022-12-30T09:44:54.709Z,1000.96
2022-12-30T09:45:54.762Z,1000.99
2022-12-30T09:46:54.749Z,1001.02
2022-12-30T09:47:54.627Z,1001.04
2022-12-30T09:48:54.597Z,1000.96
2022-12-30T09:49:54.585Z,1001.00
2022-12-30T09:50:54.535Z,1000.98
2022-12-30T09:51:54.534Z,1000.95
2022-12-30T09:52:54.483Z,1000.94
2022-12-30T09:53:54.468Z,1000.89
2022-12-30T09:54:54.430Z,1000.85
2022-12-30T09:55:54.417Z,1000.79
2022-12-30T09:56:54.369Z,1000.79
2022-12-30T09:57:54.348Z,1000.71
2022-12-30T09:58:58.735Z,1000.75
2022-12-30T09:59:54.289Z,1000.74
2022-12-30T10:00:54.421Z,1000.75
2022-12-30T10:01:54.533Z,1000.69
2022-12-30T10:02:54.491Z,1000.59
2022-12-30T10:03:58.600Z,1000.63
2022-12-30T10:04:54.181Z,1000.57
2022-12-30T10:05:54.151Z,1000.43
2022-12-30T10:06:54.119Z,1000.40
2022-12-30T10:07:54.140Z,1000.31
2022-12-30T10:08:54.027Z,1000.38
2022-12-30T10:09:54.002Z,1000.30
2022-12-30T10:10:53.982Z,1000.33
2022-12-30T10:11:53.959Z,1000.25
2022-12-30T10:12:53.920Z,1000.17
2022-12-30T10:13:53.892Z,1000.17
2022-12-30T10:14:53.857Z,1000.11
2022-12-30T10:15:53.832Z,1000.11
2022-12-30T10:16:53.953Z,1000.04
2022-12-30T10:17:53.776Z,999.98
2022-12-30T10:18:53.748Z,999.97
2022-12-30T10:19:53.717Z,999.97
2022-12-30T10:20:53.694Z,999.94
2022-12-30T10:21:53.661Z,999.91
2022-12-30T10:22:53.692Z,999.87
2022-12-30T10:23:53.604Z,999.87
2022-12-30T10:24:53.582Z,999.86
2022-12-30T10:25:53.550Z,999.86
2022-12-30T10:26:53.556Z,999.80
2022-12-30T10:27:53.509Z,999.87
2022-12-30T10:28:53.467Z,999.82
2022-12-30T10:29:58.301Z,999.76
2022-12-30T10:30:53.413Z,999.78
2022-12-30T10:31:53.473Z,999.74
2022-12-30T10:32:53.363Z,999.79
2022-12-30T10:33:53.338Z,999.77
2022-12-30T10:34:53.293Z,999.72
2022-12-30T10:35:57.470Z,999.78
2022-12-30T10:36:53.238Z,999.74
2022-12-30T10:37:53.291Z,999.71
2022-12-30T10:38:53.180Z,999.65
2022-12-30T10:39:53.154Z,999.60
2022-12-30T10:40:54.959Z,999.56
2022-12-30T10:41:53.095Z,999.62
2022-12-30T10:42:53.070Z,999.61
2022-12-30T10:43:53.101Z,999.59
2022-12-30T10:44:53.014Z,999.52
2022-12-30T10:45:53.024Z,999.44
2022-12-30T10:46:52.963Z,999.49
2022-12-30T10:47:52.931Z,999.43
2022-12-30T10:48:52.901Z,999.45
2022-12-30T10:49:52.874Z,999.40
2022-12-30T10:50:52.846Z,999.42
2022-12-30T10:51:52.813Z,999.39
2022-12-30T10:52:58.863Z,999.33
2022-12-30T10:53:52.757Z,999.30
2022-12-30T10:54:52.746Z,999.36
2022-12-30T10:55:52.703Z,999.28
2022-12-30T10:56:52.680Z,999.34
2022-12-30T10:57:52.654Z,999.26
2022-12-30T10:58:58.020Z,999.32
2022-12-30T10:59:52.613Z,999.32
2022-12-30T11:00:52.628Z,999.16
2022-12-30T11:01:52.630Z,999.15
2022-12-30T11:02:52.808Z,999.15
2022-12-30T11:03:52.482Z,999.16
2022-12-30T11:04:52.457Z,999.11
2022-12-30T11:05:52.429Z,999.11
2022-12-30T11:06:52.403Z,999.16
2022-12-30T11:07:52.380Z,999.12
2022-12-30T11:08:52.368Z,999.14
2022-12-30T11:09:54.195Z,999.12
2022-12-30T11:10:52.289Z,999.07
2022-12-30T11:12:23.139Z,998.98
2022-12-30T11:12:52.237Z,998.87
2022-12-30T11:13:52.200Z,998.89
2022-12-30T11:14:52.177Z,998.96
2022-12-30T11:15:52.165Z,998.97
2022-12-30T11:16:52.179Z,999.01
2022-12-30T11:17:52.092Z,999.01
2022-12-30T11:18:52.138Z,998.95
2022-12-30T11:19:52.037Z,998.97
2022-12-30T11:20:52.012Z,998.96
2022-12-30T11:21:51.997Z,998.95
2022-12-30T11:22:51.975Z,998.85
2022-12-30T11:23:51.938Z,998.88
2022-12-30T11:24:51.903Z,998.88
2022-12-30T11:25:51.871Z,998.75
2022-12-30T11:26:51.895Z,998.80
2022-12-30T11:27:51.814Z,998.74
2022-12-30T11:28:51.845Z,998.75
2022-12-30T11:29:51.761Z,998.76
2022-12-30T11:30:51.870Z,998.79
2022-12-30T11:31:51.731Z,998.73
2022-12-30T11:32:51.685Z,998.71
2022-12-30T11:33:51.655Z,998.72
2022-12-30T11:34:51.633Z,998.70
2022-12-30T11:35:51.598Z,998.70
2022-12-30T11:36:51.572Z,998.64
2022-12-30T11:37:51.557Z,998.67
2022-12-30T11:38:51.738Z,998.67
2022-12-30T11:39:51.500Z,998.66
2022-12-30T11:40:51.460Z,998.57
2022-12-30T11:41:51.433Z,998.50
2022-12-30T11:42:51.403Z,998.50
2022-12-30T11:43:51.377Z,998.49
2022-12-30T11:44:51.349Z,998.44
2022-12-30T11:45:53.486Z,998.40
2022-12-30T11:46:51.445Z,998.43
2022-12-30T11:47:51.288Z,998.35
2022-12-30T11:48:51.405Z,998.32
2022-12-30T11:49:51.209Z,998.29
2022-12-30T11:50:51.184Z,998.21
2022-12-30T11:51:51.663Z,998.25
2022-12-30T11:52:51.131Z,998.14
2022-12-30T11:53:51.105Z,998.12
2022-12-30T11:54:51.078Z,998.09
2022-12-30T11:55:51.054Z,998.09
2022-12-30T11:56:51.033Z,998.04
2022-12-30T11:57:52.883Z,997.98
2022-12-30T11:58:50.986Z,997.86
2022-12-30T11:59:50.953Z,997.84
2022-12-30T12:00:50.909Z,997.70
2022-12-30T12:01:50.927Z,997.72
2022-12-30T12:02:50.947Z,997.66
2022-12-30T12:03:51.011Z,997.66
2022-12-30T12:04:50.815Z,997.66
2022-12-30T12:05:50.773Z,997.62
2022-12-30T12:06:50.773Z,997.61
2022-12-30T12:07:50.715Z,997.61
2022-12-30T12:08:50.713Z,997.64